Time;durP1;ratioP1;P1;durP2;ratioP2;P2;SDS_P1;SDS_P2;PMS_P1;PMS_P2;Temp;Humidity;BMP_temperature;BMP_pressure;BME280_temperature;BME280_humidity;BME280_pressure;Samples;Min_cycle;Max_cycle;Signal;HPM_P1;HPM_P2
2022/03/05 00:02:14;;;;;;;113.35;55.90;;;;;;;0.30;63.34;94411.19;1523346;93;21843;-48
2022/03/05 00:04:41;;;;;;;106.30;54.40;;;;;;;0.25;63.71;94406.16;1524079;93;21108;-48
2022/03/05 00:07:08;;;;;;;117.60;57.70;;;;;;;0.27;64.03;94409.84;1524689;93;21027;-49
2022/03/05 00:09:37;;;;;;;135.48;65.92;;;;;;;0.30;63.99;94410.41;1523498;93;21027;-47
2022/03/05 00:12:05;;;;;;;139.03;67.05;;;;;;;0.24;64.23;94414.68;1516763;93;21012;-49
2022/03/05 00:14:32;;;;;;;114.25;54.05;;;;;;;0.22;64.67;94408.30;1522540;92;21256;-48
2022/03/05 00:17:00;;;;;;;93.72;50.03;;;;;;;0.29;64.63;94406.16;1522595;93;21095;-50
2022/03/05 00:19:28;;;;;;;92.33;50.15;;;;;;;0.27;64.46;94403.08;1523734;92;21670;-49
2022/03/05 00:21:59;;;;;;;94.87;48.48;;;;;;;0.20;64.69;94405.22;1522995;92;21532;-49
2022/03/05 00:24:26;;;;;;;79.60;43.28;;;;;;;0.16;64.87;94414.48;1517289;92;21115;-48
2022/03/05 00:26:53;;;;;;;66.90;39.13;;;;;;;0.08;65.06;94412.97;1519587;92;21910;-48
2022/03/05 00:29:21;;;;;;;75.00;40.00;;;;;;;0.00;65.39;94409.50;1523302;92;21553;-48
2022/03/05 00:31:49;;;;;;;73.80;39.90;;;;;;;-0.06;65.84;94415.68;1522946;92;21020;-48
2022/03/05 00:34:16;;;;;;;62.80;36.00;;;;;;;-0.03;66.07;94404.68;1520311;94;21073;-49
2022/03/05 00:36:43;;;;;;;68.25;38.23;;;;;;;0.05;65.87;94403.69;1519302;92;21236;-48
2022/03/05 00:39:10;;;;;;;72.47;38.58;;;;;;;0.09;65.85;94409.89;1524311;92;21100;-48
2022/03/05 00:41:37;;;;;;;60.98;36.73;;;;;;;0.09;65.92;94401.77;1522905;93;21050;-49
2022/03/05 00:44:05;;;;;;;58.80;33.20;;;;;;;0.13;66.00;94407.94;1522930;92;21053;-48
2022/03/05 00:46:32;;;;;;;58.55;34.50;;;;;;;0.07;65.70;94406.02;1522757;93;21645;-48
2022/03/05 00:48:59;;;;;;;80.83;42.43;;;;;;;-0.01;65.80;94405.81;1524502;93;21177;-48
2022/03/05 00:51:27;;;;;;;76.07;41.37;;;;;;;-0.05;65.89;94402.95;1525804;93;21857;-49
2022/03/05 00:53:54;;;;;;;74.20;39.35;;;;;;;-0.04;66.03;94406.59;1528335;92;21028;-48
2022/03/05 00:56:21;;;;;;;73.90;39.27;;;;;;;-0.01;65.84;94403.90;1509085;93;21146;-49
2022/03/05 00:58:50;;;;;;;69.05;39.85;;;;;;;-0.07;65.80;94402.56;1510556;93;21647;-48
2022/03/05 01:01:17;;;;;;;69.97;39.90;;;;;;;-0.16;65.97;94403.52;1524932;93;21495;-49
2022/03/05 01:03:44;;;;;;;88.42;44.53;;;;;;;-0.22;66.51;94403.73;1523079;92;21271;-48
2022/03/05 01:06:12;;;;;;;95.87;50.20;;;;;;;-0.14;67.01;94397.15;1519715;93;21120;-49
2022/03/05 01:08:39;;;;;;;84.00;41.48;;;;;;;0.00;67.08;94400.03;1520781;93;21113;-48
2022/03/05 01:11:08;;;;;;;80.50;43.63;;;;;;;0.13;66.43;94393.07;1521630;93;21480;-48
2022/03/05 01:13:37;;;;;;;79.42;42.03;;;;;;;0.14;66.34;94389.77;1523149;92;21138;-48
2022/03/05 01:16:06;;;;;;;68.92;37.50;;;;;;;0.21;66.30;94391.13;1523677;93;21641;-53
2022/03/05 01:18:33;;;;;;;71.15;38.88;;;;;;;0.31;65.94;94386.25;1519514;94;21064;-49
2022/03/05 01:21:01;;;;;;;77.40;40.33;;;;;;;0.34;65.32;94386.25;1514326;92;21075;-48
2022/03/05 01:23:28;;;;;;;70.30;38.90;;;;;;;0.23;65.00;94384.14;1513790;92;21029;-48
2022/03/05 01:25:55;;;;;;;70.87;40.10;;;;;;;0.12;65.50;94385.33;1523030;92;21047;-48
2022/03/05 01:28:23;;;;;;;71.95;39.27;;;;;;;0.09;66.04;94379.36;1523097;92;21339;-50
2022/03/05 01:30:51;;;;;;;76.28;40.48;;;;;;;0.16;65.67;94390.15;1524141;93;21321;-49
2022/03/05 01:33:19;;;;;;;67.67;36.68;;;;;;;0.15;65.38;94394.80;1523679;92;21199;-49
2022/03/05 01:35:46;;;;;;;59.67;34.78;;;;;;;0.08;65.01;94390.73;1523598;92;21012;-49
2022/03/05 01:38:14;;;;;;;61.08;34.45;;;;;;;-0.04;65.04;94396.38;1523488;92;21090;-48
2022/03/05 01:40:41;;;;;;;60.78;35.00;;;;;;;-0.12;65.23;94397.53;1518623;93;21147;-49
2022/03/05 01:43:09;;;;;;;68.50;35.28;;;;;;;-0.17;65.35;94394.66;1523112;92;21484;-49
2022/03/05 01:45:36;;;;;;;66.02;35.13;;;;;;;-0.18;65.31;94392.33;1524501;92;21496;-49
2022/03/05 01:48:03;;;;;;;61.33;35.15;;;;;;;-0.23;65.33;94385.38;1523367;92;21063;-51
2022/03/05 01:50:31;;;;;;;58.40;35.00;;;;;;;-0.27;65.73;94378.42;1525072;93;21070;-47
2022/03/05 01:52:58;;;;;;;66.00;37.33;;;;;;;-0.24;66.00;94382.48;1523869;92;21336;-48
2022/03/05 01:55:25;;;;;;;56.20;33.28;;;;;;;-0.26;65.71;94390.81;1523654;91;21185;-49
2022/03/05 01:57:54;;;;;;;59.30;34.75;;;;;;;-0.33;65.63;94393.49;1523381;92;21047;-49
2022/03/05 02:00:21;;;;;;;58.15;32.20;;;;;;;-0.47;65.54;94388.08;1523851;92;21059;-48
2022/03/05 02:02:50;;;;;;;69.42;38.00;;;;;;;-0.60;65.85;94393.70;1523474;92;21113;-49
2022/03/05 02:05:17;;;;;;;65.15;34.38;;;;;;;-0.58;66.25;94390.03;1522892;92;22116;-48
2022/03/05 02:07:46;;;;;;;63.98;33.33;;;;;;;-0.50;66.10;94387.52;1523902;93;21594;-48
2022/03/05 02:10:16;;;;;;;62.13;33.83;;;;;;;-0.48;65.73;94392.73;1523433;92;21067;-48
2022/03/05 02:12:44;;;;;;;80.20;41.02;;;;;;;-0.52;65.68;94389.83;1523812;92;21088;-52
2022/03/05 02:15:11;;;;;;;91.28;43.75;;;;;;;-0.59;65.82;94387.14;1524818;92;21067;-49
2022/03/05 02:17:39;;;;;;;85.77;46.48;;;;;;;-0.64;65.74;94390.98;1522928;93;21354;-48
2022/03/05 02:20:08;;;;;;;78.95;41.28;;;;;;;-0.78;66.05;94395.60;1523679;92;21015;-47
2022/03/05 02:22:35;;;;;;;79.07;42.43;;;;;;;-0.82;66.25;94385.35;1523150;92;21142;-49
2022/03/05 02:25:05;;;;;;;82.20;46.08;;;;;;;-0.95;66.36;94392.30;1505565;93;21035;-50
2022/03/05 02:27:33;;;;;;;100.87;50.20;;;;;;;-1.06;66.67;94394.19;1524200;92;21152;-50
2022/03/05 02:30:00;;;;;;;104.80;52.38;;;;;;;-1.17;66.95;94388.00;1523023;92;21289;-48
2022/03/05 02:32:29;;;;;;;123.75;58.45;;;;;;;-1.29;67.37;94397.78;1523250;92;21094;-50
2022/03/05 02:34:56;;;;;;;118.28;56.02;;;;;;;-1.33;67.89;94400.46;1521756;93;21606;-48
2022/03/05 02:37:23;;;;;;;126.33;62.35;;;;;;;-1.33;68.05;94402.41;1522809;92;21076;-48
2022/03/05 02:39:50;;;;;;;110.57;56.35;;;;;;;-1.39;68.27;94399.86;1523069;92;21111;-47
2022/03/05 02:42:18;;;;;;;110.20;55.12;;;;;;;-1.39;68.58;94405.25;1522308;92;21250;-48
2022/03/05 02:44:45;;;;;;;103.80;56.48;;;;;;;-1.43;68.64;94395.81;1523510;92;21147;-48
2022/03/05 02:47:13;;;;;;;112.08;58.48;;;;;;;-1.48;68.86;94408.89;1522133;92;21020;-48
2022/03/05 02:49:42;;;;;;;108.85;54.45;;;;;;;-1.50;69.09;94403.86;1523311;91;21622;-48
2022/03/05 02:52:09;;;;;;;118.90;59.05;;;;;;;-1.46;69.42;94405.23;1523864;92;20999;-48
2022/03/05 02:54:37;;;;;;;114.75;57.03;;;;;;;-1.38;69.64;94406.80;1524348;92;21917;-48
2022/03/05 02:57:04;;;;;;;108.50;50.92;;;;;;;-1.33;69.45;94412.59;1523246;92;21104;-48
2022/03/05 02:59:32;;;;;;;108.22;51.30;;;;;;;-1.29;69.33;94408.58;1522061;92;21084;-48
2022/03/05 03:01:59;;;;;;;158.40;59.60;;;;;;;-1.28;69.21;94410.12;1516556;94;21083;-49
2022/03/05 03:04:26;;;;;;;114.15;51.48;;;;;;;-1.26;69.22;94410.52;1523679;92;21251;-48
2022/03/05 03:06:55;;;;;;;93.22;45.58;;;;;;;-1.21;69.27;94406.87;1523612;92;21249;-49
2022/03/05 03:09:23;;;;;;;78.62;43.35;;;;;;;-1.18;69.12;94408.80;1524038;92;21104;-48
2022/03/05 03:11:52;;;;;;;75.80;40.85;;;;;;;-1.20;68.93;94408.98;1525036;93;21487;-49
2022/03/05 03:14:19;;;;;;;71.28;39.98;;;;;;;-1.22;68.99;94407.24;1524379;92;21087;-48
2022/03/05 03:16:48;;;;;;;74.87;38.45;;;;;;;-1.23;68.80;94408.39;1523133;92;21138;-48
2022/03/05 03:19:16;;;;;;;74.30;41.05;;;;;;;-1.22;69.00;94409.94;1522296;92;21927;-48
2022/03/05 03:21:43;;;;;;;77.05;41.60;;;;;;;-1.17;68.91;94406.89;1523895;92;21055;-48
2022/03/05 03:24:10;;;;;;;73.92;40.50;;;;;;;-1.15;68.88;94414.03;1522872;92;21063;-49
2022/03/05 03:26:38;;;;;;;76.12;40.50;;;;;;;-1.11;69.01;94408.05;1523372;93;21120;-49
2022/03/05 03:29:05;;;;;;;73.02;40.25;;;;;;;-1.08;69.03;94412.69;1520855;93;21373;-48
2022/03/05 03:31:33;;;;;;;93.22;44.27;;;;;;;-1.10;68.84;94406.31;1524412;92;21125;-48
2022/03/05 03:34:02;;;;;;;74.75;40.03;;;;;;;-1.06;69.31;94412.52;1524277;92;21051;-48
2022/03/05 03:36:29;;;;;;;76.77;41.37;;;;;;;-0.93;69.58;94411.58;1523863;94;21096;-48
2022/03/05 03:38:56;;;;;;;89.17;44.95;;;;;;;-0.71;69.22;94417.98;1523954;92;21579;-47
2022/03/05 03:41:24;;;;;;;91.95;48.98;;;;;;;-0.60;68.50;94424.75;1523797;92;21044;-48
2022/03/05 03:43:51;;;;;;;79.37;43.63;;;;;;;-0.57;68.46;94420.69;1523789;92;21192;-48
2022/03/05 03:46:19;;;;;;;88.03;45.12;;;;;;;-0.56;67.87;94423.58;1523059;92;21110;-49
2022/03/05 03:48:46;;;;;;;107.00;55.00;;;;;;;-0.56;68.03;94422.83;1522146;92;21011;-48
2022/03/05 03:51:13;;;;;;;111.00;54.93;;;;;;;-0.47;68.12;94428.04;1522987;94;21523;-51
2022/03/05 03:53:41;;;;;;;108.05;56.15;;;;;;;-0.37;67.89;94429.20;1522949;93;21059;-49
2022/03/05 03:56:10;;;;;;;123.20;64.00;;;;;;;-0.36;67.58;94429.39;1522911;92;22337;-49
2022/03/05 03:58:38;;;;;;;105.58;56.85;;;;;;;-0.40;67.17;94421.87;1523079;92;21055;-48
2022/03/05 04:01:05;;;;;;;97.57;51.73;;;;;;;-0.50;67.18;94423.98;1523414;93;21216;-49
2022/03/05 04:03:32;;;;;;;94.42;51.08;;;;;;;-0.57;67.45;94432.08;1522808;92;21244;-49
2022/03/05 04:05:59;;;;;;;84.87;46.13;;;;;;;-0.61;67.59;94429.97;1522375;94;21257;-49
2022/03/05 04:08:42;;;;;;;102.15;53.10;;;;;;;-0.63;68.07;94433.03;1519827;92;21161;-48
2022/03/05 04:11:18;;;;;;;93.72;53.73;;;;;;;-0.60;68.09;94433.61;1522846;94;21116;-49
2022/03/05 04:13:48;;;;;;;105.87;55.92;;;;;;;-0.54;68.24;94436.71;1522353;92;21107;-49
2022/03/05 04:16:16;;;;;;;98.75;54.27;;;;;;;-0.51;67.93;94439.98;1521190;92;21551;-49
2022/03/05 04:18:43;;;;;;;83.50;45.63;;;;;;;-0.45;67.84;94435.77;1520599;92;21566;-49
2022/03/05 04:21:11;;;;;;;74.90;42.53;;;;;;;-0.42;67.50;94436.34;1523189;92;21662;-48
2022/03/05 04:23:38;;;;;;;71.10;39.10;;;;;;;-0.50;67.55;94440.19;1524427;93;21466;-48
2022/03/05 04:26:05;;;;;;;79.90;41.58;;;;;;;-0.59;67.47;94441.16;1523237;92;21134;-47
2022/03/05 04:28:32;;;;;;;69.95;39.65;;;;;;;-0.75;67.78;94446.89;1522972;92;21111;-49
2022/03/05 04:31:00;;;;;;;66.60;35.80;;;;;;;-0.80;68.04;94442.47;1523846;92;21094;-48
2022/03/05 04:33:29;;;;;;;64.15;36.13;;;;;;;-0.84;67.83;94447.06;1523473;93;20992;-50
2022/03/05 04:35:56;;;;;;;73.37;39.03;;;;;;;-0.92;67.93;94453.61;1523124;92;21440;-52
2022/03/05 04:38:25;;;;;;;74.40;43.50;;;;;;;-1.04;68.12;94456.64;1524031;92;21619;-51
2022/03/05 04:40:53;;;;;;;82.45;44.50;;;;;;;-1.09;68.46;94453.76;1514040;92;21121;-49
2022/03/05 04:43:20;;;;;;;81.28;43.87;;;;;;;-1.04;68.66;94463.39;1520395;92;21285;-49
2022/03/05 04:45:47;;;;;;;85.28;45.78;;;;;;;-1.03;68.85;94456.28;1523632;92;21210;-49
2022/03/05 04:48:15;;;;;;;98.55;53.68;;;;;;;-0.93;69.28;94462.86;1518880;92;21000;-49
2022/03/05 04:50:45;;;;;;;105.90;57.62;;;;;;;-0.78;69.29;94461.75;1523702;92;21059;-48
2022/03/05 04:53:12;;;;;;;122.20;62.08;;;;;;;-0.64;69.02;94471.22;1522876;93;21138;-50
2022/03/05 04:55:39;;;;;;;95.40;53.42;;;;;;;-0.57;69.34;94461.80;1519780;93;21512;-49
2022/03/05 04:58:06;;;;;;;107.30;57.50;;;;;;;-0.46;68.98;94458.52;1524487;92;21517;-49
2022/03/05 05:00:33;;;;;;;101.65;57.50;;;;;;;-0.41;68.96;94468.96;1522863;92;21063;-49
2022/03/05 05:03:00;;;;;;;112.92;61.70;;;;;;;-0.29;69.03;94471.27;1523468;92;21992;-48
2022/03/05 05:05:28;;;;;;;137.70;72.72;;;;;;;-0.14;68.68;94472.83;1524129;92;21023;-49
2022/03/05 05:07:55;;;;;;;143.13;75.67;;;;;;;-0.06;68.23;94471.69;1524928;93;21023;-49
2022/03/05 05:10:24;;;;;;;125.72;62.62;;;;;;;-0.02;68.20;94476.52;1523725;93;21885;-49
2022/03/05 05:12:51;;;;;;;129.42;68.20;;;;;;;-0.02;68.04;94476.70;1524076;92;21055;-51
2022/03/05 05:15:19;;;;;;;103.97;56.88;;;;;;;0.05;68.20;94484.05;1522235;92;21198;-51
2022/03/05 05:17:46;;;;;;;133.75;67.95;;;;;;;0.12;67.82;94477.27;1523063;92;21130;-49
2022/03/05 05:20:14;;;;;;;107.05;58.90;;;;;;;0.17;67.55;94479.02;1522503;92;21139;-49
2022/03/05 05:22:41;;;;;;;95.62;53.65;;;;;;;0.18;67.11;94483.26;1523638;92;21355;-50
2022/03/05 05:25:10;;;;;;;102.22;55.35;;;;;;;0.18;66.84;94484.61;1522803;92;21118;-50
2022/03/05 05:27:38;;;;;;;99.90;54.98;;;;;;;0.15;66.77;94481.90;1522803;92;21281;-49
2022/03/05 05:30:07;;;;;;;106.15;56.85;;;;;;;0.17;66.77;94484.98;1523695;92;21157;-49
2022/03/05 05:32:34;;;;;;;141.15;66.82;;;;;;;0.24;66.67;94483.05;1524448;92;21562;-49
2022/03/05 05:35:03;;;;;;;122.45;62.30;;;;;;;0.26;66.41;94480.73;1523495;93;21969;-49
2022/03/05 05:37:31;;;;;;;106.58;56.13;;;;;;;0.20;66.45;94491.00;1523638;93;21119;-48
2022/03/05 05:39:59;;;;;;;126.95;64.27;;;;;;;0.17;66.52;94489.83;1527355;92;21091;-51
2022/03/05 05:42:27;;;;;;;126.70;64.70;;;;;;;0.23;66.47;94495.03;1522162;92;21079;-50
2022/03/05 05:44:54;;;;;;;106.07;59.27;;;;;;;0.21;66.56;94501.41;1522673;92;21047;-49
2022/03/05 05:47:22;;;;;;;109.03;60.80;;;;;;;0.27;66.88;94492.33;1523519;92;21903;-50
2022/03/05 05:49:49;;;;;;;121.25;60.67;;;;;;;0.34;66.44;94497.16;1522692;92;21016;-49
2022/03/05 05:52:18;;;;;;;142.60;70.15;;;;;;;0.27;66.41;94502.59;1523693;92;21019;-49
2022/03/05 05:54:46;;;;;;;129.00;66.53;;;;;;;0.24;66.46;94505.28;1523245;92;21061;-53
2022/03/05 05:57:13;;;;;;;142.40;71.75;;;;;;;0.24;66.74;94503.34;1523440;92;21028;-50
2022/03/05 05:59:40;;;;;;;117.97;61.95;;;;;;;0.25;66.47;94509.53;1523827;92;21227;-56
2022/03/05 06:02:09;;;;;;;104.45;56.18;;;;;;;0.24;66.69;94505.28;1522477;92;21245;-54
2022/03/05 06:04:36;;;;;;;109.72;59.98;;;;;;;0.25;66.55;94507.59;1523954;93;21158;-55
2022/03/05 06:07:04;;;;;;;101.30;56.35;;;;;;;0.23;66.40;94511.86;1523530;92;21098;-52
2022/03/05 06:09:33;;;;;;;130.82;71.02;;;;;;;0.19;66.38;94505.09;1522852;92;21221;-55
2022/03/05 06:12:00;;;;;;;133.20;71.62;;;;;;;0.13;66.40;94509.91;1524083;92;21354;-55
2022/03/05 06:14:27;;;;;;;119.65;66.02;;;;;;;0.09;66.78;94515.34;1524327;92;21559;-56
2022/03/05 06:16:56;;;;;;;116.15;65.87;;;;;;;0.12;67.35;94509.16;1525023;93;21044;-55
2022/03/05 06:19:23;;;;;;;121.72;67.32;;;;;;;0.20;67.41;94520.75;1523285;92;21035;-54
2022/03/05 06:21:53;;;;;;;123.28;66.02;;;;;;;0.19;67.28;94519.95;1524057;93;21071;-56
2022/03/05 06:24:21;;;;;;;112.72;60.65;;;;;;;0.31;67.49;94516.09;1524104;92;21150;-53
2022/03/05 06:26:48;;;;;;;108.07;60.25;;;;;;;0.49;67.28;94520.34;1522942;92;21004;-54
2022/03/05 06:29:16;;;;;;;140.35;71.65;;;;;;;0.63;66.85;94529.77;1523400;92;21112;-54
2022/03/05 06:31:43;;;;;;;134.47;70.22;;;;;;;0.76;66.64;94532.27;1522654;92;22540;-54
2022/03/05 06:34:11;;;;;;;137.05;72.82;;;;;;;0.89;66.08;94535.33;1523582;92;21094;-57
2022/03/05 06:36:38;;;;;;;115.97;63.50;;;;;;;0.89;65.68;94535.33;1522904;92;21170;-55
2022/03/05 06:39:05;;;;;;;130.10;70.97;;;;;;;0.85;65.46;94535.36;1523850;92;21456;-56
2022/03/05 06:41:33;;;;;;;115.40;64.27;;;;;;;0.84;65.21;94541.14;1524531;93;21059;-51
2022/03/05 06:44:01;;;;;;;117.30;59.75;;;;;;;0.78;65.21;94542.71;1522976;92;21055;-51
2022/03/05 06:46:29;;;;;;;110.65;58.38;;;;;;;0.66;65.15;94546.60;1526960;93;21106;-51
2022/03/05 06:48:57;;;;;;;110.05;57.70;;;;;;;0.59;65.17;94543.89;1520665;92;21264;-52
2022/03/05 06:51:24;;;;;;;139.80;70.45;;;;;;;0.52;65.11;94552.03;1526378;92;21194;-49
2022/03/05 06:53:51;;;;;;;114.85;60.08;;;;;;;0.52;65.59;94547.97;1514779;94;21186;-52
2022/03/05 06:56:19;;;;;;;95.10;51.80;;;;;;;0.59;65.04;94552.00;1526149;92;21078;-51
2022/03/05 06:58:47;;;;;;;81.45;46.60;;;;;;;0.57;64.93;94557.04;1523317;92;21630;-52
2022/03/05 07:01:14;;;;;;;88.67;47.65;;;;;;;0.62;65.31;94555.28;1524003;93;21187;-54
2022/03/05 07:03:42;;;;;;;81.05;43.17;;;;;;;0.74;65.40;94554.89;1526566;92;21167;-53
2022/03/05 07:06:10;;;;;;;57.48;34.33;;;;;;;0.89;65.17;94558.34;1534918;92;21008;-55
2022/03/05 07:08:37;;;;;;;83.62;39.33;;;;;;;0.96;64.17;94568.58;1523436;92;21033;-54
2022/03/05 07:11:04;;;;;;;84.52;40.00;;;;;;;0.94;63.67;94565.48;1524865;92;22273;-52
2022/03/05 07:13:34;;;;;;;57.85;34.50;;;;;;;0.86;63.51;94568.60;1524730;93;21281;-53
2022/03/05 07:16:02;;;;;;;49.98;29.37;;;;;;;0.87;63.21;94570.14;1525246;92;21182;-51
2022/03/05 07:18:29;;;;;;;42.62;27.75;;;;;;;0.90;62.98;94574.20;1535410;91;21084;-58
2022/03/05 07:20:58;;;;;;;44.48;26.73;;;;;;;0.92;62.72;94579.24;1524137;92;21677;-51
2022/03/05 07:23:30;;;;;;;63.45;38.28;;;;;;;0.93;62.92;94577.48;1542671;91;21177;-53
2022/03/05 07:26:00;;;;;;;40.08;25.25;;;;;;;1.00;62.88;94574.00;1526597;92;21190;-53
2022/03/05 07:28:29;;;;;;;40.33;24.85;;;;;;;1.12;62.53;94570.28;1540970;91;21637;-54
2022/03/05 07:30:56;;;;;;;54.77;33.48;;;;;;;1.15;62.18;94572.20;1542912;92;21123;-52
2022/03/05 07:33:24;;;;;;;51.23;30.23;;;;;;;1.18;62.35;94574.13;1537574;91;21452;-53
2022/03/05 07:35:51;;;;;;;59.98;34.23;;;;;;;1.26;61.84;94568.89;1531322;91;21654;-53
2022/03/05 07:38:18;;;;;;;46.90;27.62;;;;;;;1.21;61.65;94565.23;1539205;90;21242;-53
2022/03/05 07:40:46;;;;;;;48.10;29.10;;;;;;;1.13;61.26;94574.53;1533880;91;21099;-53
2022/03/05 07:43:13;;;;;;;55.33;31.48;;;;;;;1.06;61.33;94577.84;1538670;90;21537;-58
2022/03/05 07:45:40;;;;;;;41.95;26.02;;;;;;;1.12;61.75;94578.41;1535317;90;21063;-51
2022/03/05 07:48:08;;;;;;;36.83;23.77;;;;;;;1.31;61.40;94579.31;1547493;90;21542;-54
2022/03/05 07:50:35;;;;;;;36.88;27.27;;;;;;;1.51;60.35;94581.00;1545018;91;21151;-54
2022/03/05 07:53:02;;;;;;;32.78;22.93;;;;;;;1.57;59.75;94582.13;1547621;91;21106;-54
2022/03/05 07:55:29;;;;;;;38.05;21.23;;;;;;;1.64;59.43;94580.16;1538535;92;21569;-53
2022/03/05 07:57:57;;;;;;;30.85;20.00;;;;;;;1.68;58.65;94582.86;1532223;92;21071;-54
2022/03/05 08:00:24;;;;;;;28.00;18.77;;;;;;;1.62;58.30;94578.43;1541377;92;21433;-55
2022/03/05 08:02:52;;;;;;;29.25;20.55;;;;;;;1.45;58.09;94580.63;1532920;91;21142;-55
2022/03/05 08:05:19;;;;;;;26.73;18.48;;;;;;;1.37;58.38;94579.13;1536648;91;21598;-51
2022/03/05 08:07:47;;;;;;;24.67;17.23;;;;;;;1.52;58.43;94580.59;1536196;90;21860;-55
2022/03/05 08:10:15;;;;;;;29.98;18.73;;;;;;;1.67;57.79;94578.02;1529232;92;21134;-53
2022/03/05 08:12:42;;;;;;;24.55;17.15;;;;;;;1.73;57.52;94581.84;1534811;92;21546;-52
2022/03/05 08:15:11;;;;;;;28.38;18.17;;;;;;;1.78;57.40;94585.52;1531568;90;21147;-53
2022/03/05 08:17:56;;;;;;;28.25;18.52;;;;;;;1.81;57.41;94577.95;1533906;92;21205;-53
2022/03/05 08:20:26;;;;;;;23.70;16.27;;;;;;;1.93;57.58;94585.05;1541620;91;21085;-54
2022/03/05 08:22:53;;;;;;;26.90;17.98;;;;;;;2.18;57.37;94576.16;1545785;90;21589;-54
2022/03/05 08:25:21;;;;;;;30.88;20.25;;;;;;;2.32;57.11;94581.50;1540414;91;21562;-56
2022/03/05 08:27:48;;;;;;;40.38;24.50;;;;;;;2.39;56.71;94584.19;1539517;92;22336;-53
2022/03/05 08:30:16;;;;;;;48.30;27.15;;;;;;;2.45;56.88;94587.22;1534378;91;21620;-55
2022/03/05 08:32:44;;;;;;;33.58;22.07;;;;;;;2.44;56.50;94577.53;1541327;90;21079;-54
2022/03/05 08:35:11;;;;;;;25.02;18.10;;;;;;;2.48;55.96;94586.45;1542600;92;21133;-58
2022/03/05 08:37:40;;;;;;;28.52;19.42;;;;;;;2.47;55.49;94587.02;1539409;92;21124;-53
2022/03/05 08:40:09;;;;;;;29.00;17.85;;;;;;;2.36;55.78;94588.27;1530995;90;22583;-56
2022/03/05 08:42:36;;;;;;;28.98;18.50;;;;;;;2.25;55.89;94588.34;1531778;92;21325;-52
2022/03/05 08:45:05;;;;;;;26.33;17.25;;;;;;;2.29;56.23;94589.69;1527497;91;21566;-54
2022/03/05 08:47:33;;;;;;;27.15;18.82;;;;;;;2.37;56.12;94596.59;1533310;92;21699;-54
2022/03/05 08:50:00;;;;;;;23.95;15.93;;;;;;;2.39;55.90;94599.11;1521233;91;21086;-53
2022/03/05 08:52:36;;;;;;;19.32;14.23;;;;;;;2.36;55.27;94600.48;1534607;92;21220;-53
2022/03/05 08:55:00;;;;;;;22.20;15.30;;;;;;;2.25;55.41;94602.48;1524275;92;21103;-55
2022/03/05 08:57:27;;;;;;;20.23;14.28;;;;;;;2.19;55.77;94602.16;1525106;92;21095;-53
2022/03/05 08:59:54;;;;;;;22.02;15.43;;;;;;;2.22;55.97;94605.99;1518117;91;21583;-56
2022/03/05 09:02:22;;;;;;;20.55;13.40;;;;;;;2.36;55.61;94602.59;1524252;92;22223;-53
2022/03/05 09:04:49;;;;;;;18.60;14.25;;;;;;;2.50;54.86;94599.79;1529874;91;21337;-52
2022/03/05 09:07:16;;;;;;;19.77;15.25;;;;;;;2.62;55.19;94603.96;1530246;92;21054;-54
2022/03/05 09:09:44;;;;;;;24.02;15.68;;;;;;;2.81;54.84;94599.34;1519375;92;21015;-52
2022/03/05 09:12:12;;;;;;;15.50;12.05;;;;;;;3.01;54.61;94598.97;1530548;91;21242;-55
2022/03/05 09:14:41;;;;;;;20.40;13.88;;;;;;;3.19;53.28;94599.57;1532369;92;21102;-54
2022/03/05 09:17:08;;;;;;;23.75;17.60;;;;;;;3.33;53.28;94592.64;1529346;92;21807;-54
2022/03/05 09:19:36;;;;;;;18.75;13.95;;;;;;;3.47;53.19;94593.85;1544627;90;21550;-53
2022/03/05 09:22:06;;;;;;;21.05;14.73;;;;;;;3.54;52.18;94599.38;1524460;92;21098;-53
2022/03/05 09:24:34;;;;;;;21.55;15.58;;;;;;;3.56;51.80;94598.41;1537647;92;22522;-51
2022/03/05 09:27:03;;;;;;;22.75;15.08;;;;;;;3.63;51.42;94596.17;1528876;92;21126;-53
2022/03/05 09:29:31;;;;;;;18.95;13.28;;;;;;;3.70;51.82;94596.87;1529058;92;21241;-55
2022/03/05 09:31:59;;;;;;;22.40;15.40;;;;;;;3.78;51.92;94596.20;1535824;91;21664;-52
2022/03/05 09:34:26;;;;;;;20.23;14.23;;;;;;;3.65;51.59;94606.84;1551654;90;21066;-51
2022/03/05 09:36:54;;;;;;;24.02;15.58;;;;;;;3.57;51.86;94605.97;1535944;91;21152;-51
2022/03/05 09:39:21;;;;;;;27.95;17.82;;;;;;;3.53;51.89;94606.00;1537501;91;21210;-53
2022/03/05 09:41:51;;;;;;;42.73;26.25;;;;;;;3.54;51.51;94610.26;1531549;92;21194;-53
2022/03/05 09:44:18;;;;;;;40.48;25.72;;;;;;;3.58;52.28;94613.73;1531013;90;21069;-55
2022/03/05 09:46:46;;;;;;;39.80;24.75;;;;;;;3.67;52.28;94619.44;1532596;90;21104;-55
2022/03/05 09:49:13;;;;;;;25.68;17.82;;;;;;;3.75;52.44;94616.84;1540902;90;21225;-54
2022/03/05 09:51:41;;;;;;;23.92;15.95;;;;;;;3.81;52.15;94617.92;1538112;90;21114;-54
2022/03/05 09:54:08;;;;;;;26.23;18.75;;;;;;;3.79;52.04;94618.92;1541425;90;21669;-55
2022/03/05 09:56:37;;;;;;;19.92;16.12;;;;;;;3.73;52.02;94620.53;1532721;92;21178;-57
2022/03/05 09:59:07;;;;;;;18.42;14.03;;;;;;;3.56;51.30;94616.09;1530752;91;21145;-53
2022/03/05 10:01:35;;;;;;;19.45;13.53;;;;;;;3.34;51.09;94612.63;1534098;92;21144;-54
2022/03/05 10:04:04;;;;;;;16.48;13.08;;;;;;;3.17;51.64;94614.16;1540346;90;21062;-57
2022/03/05 10:06:32;;;;;;;19.37;13.78;;;;;;;3.08;52.26;94615.23;1533427;90;21207;-53
2022/03/05 10:08:59;;;;;;;15.88;13.32;;;;;;;3.00;52.67;94617.80;1529643;91;21387;-55
2022/03/05 10:11:39;;;;;;;18.73;13.25;;;;;;;2.98;52.53;94616.08;1539379;91;21162;-55
2022/03/05 10:14:16;;;;;;;15.10;12.53;;;;;;;3.03;52.92;94623.81;1535201;91;21120;-51
2022/03/05 10:16:45;;;;;;;38.02;20.17;;;;;;;3.05;52.94;94622.23;1531991;92;21163;-54
2022/03/05 10:19:17;;;;;;;30.77;19.20;;;;;;;3.10;52.68;94625.10;1529934;92;22004;-57
2022/03/05 10:22:03;;;;;;;20.77;14.03;;;;;;;3.16;52.61;94626.98;1538177;90;21249;-54
2022/03/05 10:24:37;;;;;;;19.62;13.60;;;;;;;3.21;52.72;94618.99;1535910;91;21127;-52
2022/03/05 10:27:05;;;;;;;;;;;;;;;3.17;53.27;94626.38;1524142;91;21133;-54
2022/03/05 10:29:36;;;;;;;16.42;12.82;;;;;;;3.14;53.18;94628.55;1530977;91;20309;-58
2022/03/05 10:32:08;;;;;;;15.78;12.93;;;;;;;3.14;52.25;94627.19;1532689;91;22590;-54
2022/03/05 10:34:51;;;;;;;17.82;12.78;;;;;;;3.01;52.53;94619.34;1499100;92;21135;-55
2022/03/05 10:37:19;;;;;;;18.30;12.85;;;;;;;2.93;53.05;94617.88;1525148;91;21138;-53
2022/03/05 10:39:47;;;;;;;14.20;11.63;;;;;;;2.86;53.23;94624.74;1521712;91;21122;-53
2022/03/05 10:42:20;;;;;;;10.93;9.75;;;;;;;2.87;53.37;94622.20;1502604;92;21184;-56
2022/03/05 10:45:07;;;;;;;14.35;9.65;;;;;;;2.80;52.90;94627.68;1499706;93;21205;-54
2022/03/05 10:47:40;;;;;;;10.90;9.48;;;;;;;2.85;51.83;94621.84;1487454;93;21142;-54
2022/03/05 10:50:26;;;;;;;13.30;9.68;;;;;;;2.86;50.74;94630.93;1487755;94;21075;-55
2022/03/05 10:53:00;;;;;;;13.60;9.95;;;;;;;2.82;51.41;94618.54;1498217;92;21110;-54
2022/03/05 10:55:31;;;;;;;;;;;;;;;2.82;51.34;94624.77;1496602;93;21134;-56
2022/03/05 10:58:03;;;;;;;10.23;9.10;;;;;;;2.87;51.55;94619.49;1508918;93;21814;-52
2022/03/05 11:00:32;;;;;;;19.90;12.80;;;;;;;2.96;51.19;94626.58;1509764;93;21133;-51
2022/03/05 11:03:06;;;;;;;14.60;11.73;;;;;;;3.05;51.41;94612.72;1496994;94;21108;-56
2022/03/05 11:05:40;;;;;;;34.33;18.95;;;;;;;3.14;51.35;94618.47;1494542;92;21429;-51
2022/03/05 11:08:08;;;;;;;17.02;10.20;;;;;;;3.28;51.25;94612.11;1488783;94;21134;-53
2022/03/05 11:10:36;;;;;;;10.50;8.70;;;;;;;3.36;49.85;94610.86;1465089;94;21918;-54
2022/03/05 11:13:06;;;;;;;26.17;13.88;;;;;;;3.40;50.07;94614.33;1513031;91;21149;-51
2022/03/05 11:15:37;;;;;;;18.15;10.50;;;;;;;3.38;49.80;94610.64;1488565;93;21291;-54
2022/03/05 11:18:09;;;;;;;14.90;9.68;;;;;;;3.41;50.03;94611.19;1493338;93;21139;-55
2022/03/05 11:20:37;;;;;;;11.15;9.38;;;;;;;3.44;50.23;94612.34;1493613;93;22256;-51
2022/03/05 11:23:09;;;;;;;17.80;11.40;;;;;;;3.40;50.94;94605.57;1499567;93;21103;-55
2022/03/05 11:25:40;;;;;;;15.43;10.43;;;;;;;3.40;50.94;94605.57;1471144;95;21525;-56
2022/03/05 11:28:09;;;;;;;19.02;12.35;;;;;;;3.50;51.27;94609.53;1522450;91;21508;-54